Terminal Aerodrome Forecast
Issued by NWS

Home | Current Version | Previous Version | Text Only | Print | Product List | Glossary On
Versions: 1 2 3 4 5 6 7 8 9 10 11 12 13 14 15 16 17 18 19 20
199
FTUS43 KDVN 081603 AAD
TAFBRL
TAF AMD
KBRL 081603Z 0816/0912 31018G26KT 6SM -SN SCT015 OVC030
      TEMPO 0816/0818 4SM -SN BR
     FM081800 32018G28KT 5SM -SHSN BR OVC030
     FM090300 33017G24KT 3SM -SHSN BR OVC018=

USA.gov is the U.S. government's official web portal to all federal, state and local government web resources and services.